Nidingen, Sweden

7:09 PM CEST on September 19, 2014 (GMT +0200)
Onsala | Change Station
CLOSE
Current Station
Personal Weather Station
Location: Kungsbacka, Halland
Elevation: 164 ft
Nearby Weather Stations

Elev 164 ft 57.40 °N, 12.00 °E | Updated 9 minutes ago

Clear
Clear
62.9 °F
Feels Like 62.9 °F
N
2.0
Wind Variable Wind from WNW
Gusts 5.0 mph

Today
High -- | Low -- °F
--% Chance of Precip.
Yesterday
High -- | Low -- °F
Precip. -- in
6:50 AM 7:20 PM
Waning Crescent, 18% visible
Pressure 30.01 in
Visibility -9999.0 miles
Clouds
Dew Point 54 °F
Humidity 72%
Rainfall 0.00 in
Snow Depth Not available.
UV Not available.
Pollen Not available.
Air Quality Not available.
Flu Activity Not available.
METAR ESGP 191656Z 02006KT CAVOK 17/10 Q1016

More Conditions Fewer Conditions

Pressure 30.01 in
Visibility -9999.0 miles
Clouds
Dew Point 54 °F
Humidity 72%
Rainfall 0.00 in
Snow Depth Not available.
UV Not available.
Pollen Not available.
Air Quality Not available.
Flu Activity Not available.
METAR ESGP 191656Z 02006KT CAVOK 17/10 Q1016

More Conditions Fewer Conditions

10-Day Weather Forecast

Almanac

Astronomy

Sep. 19, 2014 Rise Set
Actual Time 6:50 AM CEST 7:20 PM CEST
Civil Twilight 6:11 AM CEST 7:59 PM CEST
Nautical Twilight 5:25 AM CEST 8:45 PM CEST
Astronomical Twilight 4:34 AM CEST 9:35 PM CEST
Moon 1:37 AM CEST 5:16 PM CEST
Length of Visible Light 13h 47m
Length of Day
12h 29m
Tomorrow will be 4m 51s shorter.
Waning Crescent, 18% of the Moon is Illuminated
Today
Waning Crescent
Sep 24
New
Oct 1
First Quarter
Oct 8
Full
Oct 15
Last Quarter

Today's Extremes

Country Highs Country Lows

Community

WunderPhotos

Upload Photos

1,754,655 photos uploaded!

Nearby

Snow Depth

Not available.

Earthquake Activity

City Distance Mag. Time & Date
No recent earthquake activity has been reported nearby.
Minimum magnitude displayed is 2.5.

Coastal Water Temperatures

Place Temperature
No Stations Reporting

Nearby Weather Stations